createdAt,value
2019-04-29T00:02:06.971Z,4.90
2019-04-29T00:04:35.901Z,4.90
2019-04-29T00:07:04.875Z,4.90
2019-04-29T00:09:33.747Z,4.90
2019-04-29T00:12:02.646Z,4.90
2019-04-29T00:14:31.446Z,4.80
2019-04-29T00:17:01.845Z,4.80
2019-04-29T00:19:36.287Z,4.70
2019-04-29T00:22:05.571Z,4.70
2019-04-29T00:24:34.323Z,4.50
2019-04-29T00:27:03.539Z,4.50
2019-04-29T00:29:32.315Z,4.40
2019-04-29T00:32:01.249Z,4.30
2019-04-29T00:34:30.282Z,4.30
2019-04-29T00:37:00.697Z,4.30
2019-04-29T00:39:31.111Z,4.30
2019-04-29T00:42:01.662Z,4.40
2019-04-29T00:44:30.521Z,4.40
2019-04-29T00:47:00.472Z,4.20
2019-04-29T00:49:29.197Z,4.20
2019-04-29T00:51:58.022Z,4.10
2019-04-29T00:54:31.172Z,4.00
2019-04-29T00:57:00.001Z,3.90
2019-04-29T00:59:28.724Z,3.90
2019-04-29T01:01:57.656Z,3.80
2019-04-29T01:04:26.406Z,3.80
2019-04-29T01:06:55.169Z,3.70
2019-04-29T01:09:26.361Z,3.60
2019-04-29T01:11:55.125Z,3.40
2019-04-29T01:14:23.994Z,3.30
2019-04-29T01:16:52.785Z,3.30
2019-04-29T01:19:21.980Z,3.30
2019-04-29T01:21:50.868Z,3.30
2019-04-29T01:24:19.587Z,3.20
2019-04-29T01:26:55.935Z,3.30
2019-04-29T01:29:29.262Z,3.40
2019-04-29T01:31:58.345Z,3.30
2019-04-29T01:34:35.031Z,3.20
2019-04-29T01:37:03.873Z,3.30
2019-04-29T01:39:37.241Z,3.30
2019-04-29T01:42:13.540Z,3.20
2019-04-29T01:44:42.474Z,3.00
2019-04-29T01:47:11.262Z,3.00
2019-04-29T01:49:40.249Z,3.00
2019-04-29T01:52:09.036Z,3.00
2019-04-29T01:54:37.900Z,3.10
2019-04-29T01:57:06.778Z,3.10
2019-04-29T01:59:35.688Z,3.20
2019-04-29T02:02:04.628Z,3.10
2019-04-29T02:04:33.439Z,3.00
2019-04-29T02:07:02.268Z,3.00
2019-04-29T02:09:35.615Z,3.00
2019-04-29T02:12:04.554Z,3.00
2019-04-29T02:14:33.303Z,3.00
2019-04-29T02:17:02.433Z,2.90
2019-04-29T02:19:31.270Z,2.90
2019-04-29T02:22:17.017Z,2.90
2019-04-29T02:24:47.441Z,2.80
2019-04-29T02:27:16.207Z,2.80
2019-04-29T02:29:44.966Z,2.70
2019-04-29T02:32:13.800Z,2.70
2019-04-29T02:34:42.425Z,2.70
2019-04-29T02:37:12.786Z,2.80
2019-04-29T02:39:49.328Z,2.80
2019-04-29T02:42:36.007Z,2.90
2019-04-29T02:45:08.031Z,2.90
2019-04-29T02:47:36.855Z,2.90
2019-04-29T02:50:06.892Z,2.90
2019-04-29T02:52:35.734Z,2.90
2019-04-29T02:55:07.056Z,3.00
2019-04-29T02:57:52.492Z,3.00
2019-04-29T03:00:25.642Z,2.90
2019-04-29T03:03:08.314Z,2.80
2019-04-29T03:05:44.649Z,2.70
2019-04-29T03:08:13.602Z,2.80
2019-04-29T03:10:42.348Z,2.80
2019-04-29T03:13:11.353Z,2.90
2019-04-29T03:15:42.672Z,2.80
2019-04-29T03:18:11.502Z,2.80
2019-04-29T03:20:42.019Z,2.90
2019-04-29T03:23:12.441Z,3.00
2019-04-29T03:25:41.209Z,3.00
2019-04-29T03:28:10.030Z,2.90
2019-04-29T03:30:38.763Z,2.90
2019-04-29T03:33:07.555Z,2.90
2019-04-29T03:35:37.362Z,2.80
2019-04-29T03:38:07.599Z,2.80
2019-04-29T03:40:36.357Z,2.70
2019-04-29T03:43:05.095Z,2.70
2019-04-29T03:45:34.038Z,2.70
2019-04-29T03:48:03.095Z,2.70
2019-04-29T03:50:31.769Z,2.60
2019-04-29T03:53:00.564Z,2.70
2019-04-29T03:55:39.222Z,2.80
2019-04-29T03:57:59.687Z,2.90
2019-04-29T04:00:28.455Z,2.90
2019-04-29T04:03:02.042Z,2.80
2019-04-29T04:05:35.410Z,2.80
2019-04-29T04:08:17.677Z,2.80
2019-04-29T04:10:46.501Z,2.70
2019-04-29T04:13:15.231Z,2.80
2019-04-29T04:15:43.948Z,2.80
2019-04-29T04:18:23.278Z,3.00
2019-04-29T04:20:52.168Z,3.10
2019-04-29T04:23:21.001Z,3.10
2019-04-29T04:25:50.391Z,3.10
2019-04-29T04:28:19.118Z,3.20
2019-04-29T04:30:47.953Z,3.20
2019-04-29T04:33:16.773Z,3.20
2019-04-29T04:35:45.520Z,3.30
2019-04-29T04:38:14.270Z,3.20
2019-04-29T04:40:50.606Z,3.20
2019-04-29T04:43:19.421Z,3.20
2019-04-29T04:45:48.136Z,3.20
2019-04-29T04:48:16.952Z,3.20
2019-04-29T04:50:46.086Z,3.20
2019-04-29T04:53:14.769Z,3.30
2019-04-29T04:55:45.091Z,3.40
2019-04-29T04:58:13.745Z,3.50
2019-04-29T05:00:42.589Z,3.60
2019-04-29T05:03:11.434Z,3.80
2019-04-29T05:05:42.594Z,3.90
2019-04-29T05:08:10.579Z,4.10
2019-04-29T05:10:39.552Z,4.30
2019-04-29T05:13:08.436Z,4.40
2019-04-29T05:15:37.323Z,4.50
2019-04-29T05:18:06.057Z,4.70
2019-04-29T05:20:34.887Z,4.80
2019-04-29T05:23:03.621Z,4.90
2019-04-29T05:25:34.251Z,5.00
2019-04-29T05:28:03.744Z,5.10
2019-04-29T05:30:32.467Z,5.30
2019-04-29T05:33:01.170Z,5.50
2019-04-29T05:35:31.540Z,5.70
2019-04-29T05:38:07.686Z,5.80
2019-04-29T05:40:41.388Z,5.90
2019-04-29T05:43:11.787Z,5.70
2019-04-29T05:45:58.794Z,5.60
2019-04-29T05:48:31.619Z,5.70
2019-04-29T05:51:11.486Z,5.80
2019-04-29T05:53:41.821Z,5.90
2019-04-29T05:56:10.632Z,5.90
2019-04-29T05:58:39.698Z,5.90
2019-04-29T06:01:10.049Z,6.00
2019-04-29T06:03:39.826Z,6.10
2019-04-29T06:06:12.317Z,6.00
2019-04-29T06:08:40.709Z,6.00
2019-04-29T06:11:09.643Z,6.00
2019-04-29T06:13:38.421Z,6.10
2019-04-29T06:16:07.197Z,6.10
2019-04-29T06:18:35.979Z,6.20
2019-04-29T06:21:09.257Z,6.20
2019-04-29T06:23:35.129Z,6.30
2019-04-29T06:26:03.887Z,6.40
2019-04-29T06:28:32.617Z,6.40
2019-04-29T06:31:01.373Z,6.40
2019-04-29T06:33:31.045Z,6.40
2019-04-29T06:35:59.863Z,6.50
2019-04-29T06:38:28.746Z,6.50
2019-04-29T06:40:57.544Z,6.50
2019-04-29T06:43:28.771Z,6.60
2019-04-29T06:45:56.823Z,6.50
2019-04-29T06:48:25.645Z,6.60
2019-04-29T06:50:54.647Z,6.60
2019-04-29T06:53:23.393Z,6.60
2019-04-29T06:55:52.179Z,6.70
2019-04-29T06:58:20.975Z,6.90
2019-04-29T07:00:51.083Z,7.00
2019-04-29T07:03:20.979Z,7.00
2019-04-29T07:05:51.638Z,7.20
2019-04-29T07:08:20.470Z,7.30
2019-04-29T07:10:49.286Z,7.60
2019-04-29T07:13:22.639Z,7.80
2019-04-29T07:15:49.071Z,8.00
2019-04-29T07:18:17.856Z,8.10
2019-04-29T07:20:46.640Z,8.40
2019-04-29T07:23:15.544Z,8.40
2019-04-29T07:25:44.273Z,8.60
2019-04-29T07:28:13.777Z,8.60
2019-04-29T07:31:00.421Z,8.60
2019-04-29T07:33:22.041Z,8.60
2019-04-29T07:35:47.904Z,8.80
2019-04-29T07:38:15.157Z,8.80
2019-04-29T07:40:44.640Z,8.60
2019-04-29T07:43:13.423Z,8.50
2019-04-29T07:45:52.867Z,8.50
2019-04-29T07:48:23.228Z,8.50
2019-04-29T07:50:51.954Z,8.60
2019-04-29T07:53:26.922Z,8.80
2019-04-29T07:55:51.113Z,9.00
2019-04-29T07:58:22.961Z,8.70
2019-04-29T08:00:50.409Z,8.50
2019-04-29T08:03:19.853Z,8.60
2019-04-29T08:05:50.321Z,8.70
2019-04-29T08:08:21.349Z,9.10
2019-04-29T08:10:55.970Z,9.30
2019-04-29T08:13:21.746Z,9.60
2019-04-29T08:15:50.667Z,9.80
2019-04-29T08:18:19.434Z,9.60
2019-04-29T08:20:50.750Z,9.40
2019-04-29T08:23:19.836Z,9.30
2019-04-29T08:25:50.953Z,9.40
2019-04-29T08:28:19.004Z,9.80
2019-04-29T08:30:47.679Z,9.30
2019-04-29T08:33:16.385Z,9.30
2019-04-29T08:35:46.823Z,9.20
2019-04-29T08:38:15.941Z,9.40
2019-04-29T08:40:45.221Z,9.30
2019-04-29T08:43:23.012Z,9.30
2019-04-29T08:45:59.485Z,9.60
2019-04-29T08:48:28.255Z,9.40
2019-04-29T08:50:57.049Z,9.40
2019-04-29T08:53:25.814Z,9.70
2019-04-29T08:55:54.554Z,9.50
2019-04-29T08:58:23.289Z,9.60
2019-04-29T09:00:55.745Z,9.60
2019-04-29T09:03:23.458Z,9.60
2019-04-29T09:06:05.188Z,9.70
2019-04-29T09:08:23.422Z,9.80
2019-04-29T09:10:52.708Z,9.80
2019-04-29T09:13:21.472Z,9.70
2019-04-29T09:15:50.494Z,10.00
2019-04-29T09:18:19.453Z,10.20
2019-04-29T09:20:48.270Z,10.50
2019-04-29T09:23:24.740Z,10.60
2019-04-29T09:26:02.441Z,10.40
2019-04-29T09:28:28.152Z,10.60
2019-04-29T09:30:56.541Z,10.70
2019-04-29T09:33:25.431Z,10.90
2019-04-29T09:35:54.532Z,10.80
2019-04-29T09:38:24.651Z,11.00
2019-04-29T09:40:59.479Z,11.20
2019-04-29T09:43:42.672Z,10.80
2019-04-29T09:46:13.107Z,10.40
2019-04-29T09:48:41.957Z,10.30
2019-04-29T09:51:17.501Z,10.40
2019-04-29T09:53:42.273Z,10.50
2019-04-29T09:56:11.088Z,10.80
2019-04-29T09:58:40.449Z,10.90
2019-04-29T10:01:30.627Z,11.00
2019-04-29T10:04:01.200Z,10.90
2019-04-29T10:06:34.481Z,11.10
2019-04-29T10:09:03.359Z,10.80
2019-04-29T10:11:32.237Z,10.60
2019-04-29T10:14:01.148Z,10.50
2019-04-29T10:16:37.858Z,10.60
2019-04-29T10:19:08.297Z,10.80
2019-04-29T10:21:37.255Z,10.70
2019-04-29T10:24:06.023Z,10.50
2019-04-29T10:26:34.823Z,10.50
2019-04-29T10:29:07.922Z,10.60
2019-04-29T10:31:37.017Z,10.70
2019-04-29T10:34:06.992Z,10.60
2019-04-29T10:36:35.775Z,10.40
2019-04-29T10:39:09.085Z,10.20
2019-04-29T10:41:40.207Z,10.30
2019-04-29T10:44:23.251Z,10.30
2019-04-29T10:47:05.985Z,10.50
2019-04-29T10:49:39.319Z,10.70
2019-04-29T10:52:07.095Z,11.10
2019-04-29T10:54:36.266Z,11.30
2019-04-29T10:57:05.435Z,11.30
2019-04-29T10:59:36.404Z,11.00
2019-04-29T11:02:27.908Z,10.70
2019-04-29T11:04:58.703Z,10.60
2019-04-29T11:07:29.165Z,10.60
2019-04-29T11:10:02.378Z,10.50
2019-04-29T11:12:31.728Z,10.70
2019-04-29T11:15:01.680Z,10.50
2019-04-29T11:17:31.005Z,10.60
2019-04-29T11:20:00.060Z,10.60
2019-04-29T11:22:34.021Z,10.70
2019-04-29T11:25:06.595Z,10.60
2019-04-29T11:27:42.756Z,10.60
2019-04-29T11:30:13.698Z,10.60
2019-04-29T11:32:44.224Z,10.50
2019-04-29T11:35:17.425Z,10.30
2019-04-29T11:37:50.010Z,10.30
2019-04-29T11:40:20.480Z,10.20
2019-04-29T11:42:50.373Z,10.30
2019-04-29T11:45:20.508Z,10.30
2019-04-29T11:47:49.558Z,10.40
2019-04-29T11:50:20.119Z,10.30
2019-04-29T11:52:48.978Z,10.30
2019-04-29T11:55:18.418Z,10.40
2019-04-29T11:57:50.000Z,10.50
2019-04-29T12:00:30.301Z,10.60
2019-04-29T12:03:03.846Z,10.40
2019-04-29T12:05:34.712Z,10.20
2019-04-29T12:08:11.179Z,9.90
2019-04-29T12:10:38.316Z,9.50
2019-04-29T12:13:06.821Z,9.10
2019-04-29T12:15:39.966Z,8.70
2019-04-29T12:18:13.357Z,8.40
2019-04-29T12:20:50.234Z,8.30
2019-04-29T12:23:19.205Z,8.10
2019-04-29T12:25:48.063Z,8.00
2019-04-29T12:28:19.278Z,8.00
2019-04-29T12:30:49.088Z,7.90
2019-04-29T12:33:22.524Z,8.10
2019-04-29T12:35:52.940Z,8.10
2019-04-29T12:38:23.562Z,8.30
2019-04-29T12:41:02.642Z,8.40
2019-04-29T12:43:38.910Z,8.50
2019-04-29T12:46:15.380Z,8.50
2019-04-29T12:48:44.267Z,8.60
2019-04-29T12:51:12.970Z,8.60
2019-04-29T12:53:44.724Z,8.60
2019-04-29T12:56:12.831Z,8.70
2019-04-29T12:58:41.582Z,8.70
2019-04-29T13:01:17.746Z,8.70
2019-04-29T13:03:48.107Z,8.70
2019-04-29T13:06:24.088Z,8.80
2019-04-29T13:09:01.389Z,8.80
2019-04-29T13:11:37.581Z,8.70
2019-04-29T13:14:01.887Z,8.80
2019-04-29T13:16:31.763Z,8.80
2019-04-29T13:19:11.490Z,8.80
2019-04-29T13:21:32.965Z,8.80
2019-04-29T13:24:13.522Z,8.80
2019-04-29T13:26:33.351Z,8.70
2019-04-29T13:29:02.996Z,8.80
2019-04-29T13:31:38.564Z,8.70
2019-04-29T13:34:22.397Z,8.70
2019-04-29T13:36:34.930Z,8.60
2019-04-29T13:39:05.234Z,8.40
2019-04-29T13:41:33.998Z,8.40
2019-04-29T13:44:05.316Z,8.40
2019-04-29T13:46:35.378Z,8.30
2019-04-29T13:49:16.230Z,8.40
2019-04-29T13:51:47.007Z,8.30
2019-04-29T13:54:15.727Z,8.40
2019-04-29T13:56:55.565Z,8.40
2019-04-29T13:59:16.836Z,8.40
2019-04-29T14:02:01.382Z,8.40
2019-04-29T14:04:28.299Z,8.30
2019-04-29T14:06:57.977Z,8.30
2019-04-29T14:09:29.524Z,8.30
2019-04-29T14:12:02.824Z,8.30
2019-04-29T14:14:30.127Z,8.40
2019-04-29T14:17:17.434Z,8.40
2019-04-29T14:19:41.070Z,8.40
2019-04-29T14:22:01.752Z,8.40
2019-04-29T14:24:30.468Z,8.20
2019-04-29T14:26:59.404Z,8.20
2019-04-29T14:29:30.161Z,8.20
2019-04-29T14:32:01.352Z,8.20
2019-04-29T14:34:47.404Z,8.20
2019-04-29T14:37:24.418Z,8.20
2019-04-29T14:39:46.793Z,8.20
2019-04-29T14:42:17.359Z,8.20
2019-04-29T14:44:53.827Z,8.10
2019-04-29T14:47:24.356Z,8.00
2019-04-29T14:49:55.138Z,8.00
2019-04-29T14:52:24.272Z,8.00
2019-04-29T14:54:53.250Z,8.00
2019-04-29T14:57:22.045Z,8.00
2019-04-29T14:59:51.112Z,7.90
2019-04-29T15:02:25.028Z,7.90
2019-04-29T15:04:54.528Z,7.90
2019-04-29T15:07:24.332Z,8.00
2019-04-29T15:09:57.510Z,8.00
2019-04-29T15:12:32.449Z,7.90
2019-04-29T15:15:05.721Z,7.90
2019-04-29T15:17:46.644Z,7.90
2019-04-29T15:20:17.175Z,7.90
2019-04-29T15:22:46.673Z,7.90
2019-04-29T15:25:16.841Z,7.90
2019-04-29T15:27:46.314Z,7.90
2019-04-29T15:30:15.769Z,7.90
2019-04-29T15:32:44.872Z,7.90
2019-04-29T15:35:13.901Z,7.90
2019-04-29T15:37:42.823Z,7.90
2019-04-29T15:40:12.131Z,7.90
2019-04-29T15:42:43.165Z,7.90
2019-04-29T15:45:11.870Z,7.80
2019-04-29T15:47:41.726Z,7.80
2019-04-29T15:50:18.731Z,7.70
2019-04-29T15:52:45.165Z,7.70
2019-04-29T15:55:13.965Z,7.70
2019-04-29T15:57:49.419Z,7.70
2019-04-29T16:00:21.818Z,7.70
2019-04-29T16:02:45.014Z,7.80
2019-04-29T16:05:16.021Z,7.80
2019-04-29T16:07:58.149Z,7.70
2019-04-29T16:10:31.108Z,7.80
2019-04-29T16:13:13.859Z,7.70
2019-04-29T16:15:43.237Z,7.70
2019-04-29T16:20:34.293Z,7.70
2019-04-29T16:23:03.248Z,7.70
2019-04-29T16:25:32.037Z,7.70
2019-04-29T16:28:01.032Z,7.70
2019-04-29T16:30:31.988Z,7.60
2019-04-29T16:33:00.580Z,7.60
2019-04-29T16:35:34.755Z,7.60
2019-04-29T16:38:05.551Z,7.60
2019-04-29T16:40:33.955Z,7.60
2019-04-29T16:43:07.394Z,7.70
2019-04-29T16:45:55.376Z,7.70
2019-04-29T16:48:24.639Z,7.60
2019-04-29T16:50:53.613Z,7.60
2019-04-29T16:53:22.896Z,7.60
2019-04-29T16:55:53.718Z,7.60
2019-04-29T16:58:22.962Z,7.60
2019-04-29T17:00:54.590Z,7.60
2019-04-29T17:03:22.738Z,7.60
2019-04-29T17:05:51.898Z,7.60
2019-04-29T17:08:22.625Z,7.50
2019-04-29T17:10:53.585Z,7.50
2019-04-29T17:13:23.911Z,7.50
2019-04-29T17:15:53.876Z,7.50
2019-04-29T17:18:23.313Z,7.50
2019-04-29T17:20:52.615Z,7.50
2019-04-29T17:23:24.386Z,7.50
2019-04-29T17:25:52.383Z,7.50
2019-04-29T17:31:13.941Z,7.50
2019-04-29T17:33:51.526Z,7.50
2019-04-29T17:35:17.976Z,7.50
2019-04-29T17:36:23.887Z,7.50
2019-04-29T17:38:51.928Z,7.40
2019-04-29T17:41:21.234Z,7.40
2019-04-29T17:43:51.965Z,7.40
2019-04-29T17:46:28.641Z,7.40
2019-04-29T17:49:01.889Z,7.40
2019-04-29T17:51:31.711Z,7.40
2019-04-29T17:54:02.828Z,7.40
2019-04-29T17:56:34.641Z,7.40
2019-04-29T17:59:29.413Z,7.40
2019-04-29T18:01:56.395Z,7.40
2019-04-29T18:04:45.568Z,7.40
2019-04-29T18:07:15.613Z,7.40
2019-04-29T18:09:49.086Z,7.40
2019-04-29T18:12:20.853Z,7.40
2019-04-29T18:14:50.443Z,7.40
2019-04-29T18:17:27.114Z,7.30
2019-04-29T18:20:13.639Z,7.30
2019-04-29T18:22:55.937Z,7.30
2019-04-29T18:25:31.158Z,7.30
2019-04-29T18:28:00.417Z,7.30
2019-04-29T18:30:35.776Z,7.30
2019-04-29T18:33:02.264Z,7.30
2019-04-29T18:35:31.494Z,7.40
2019-04-29T18:38:00.654Z,7.40
2019-04-29T18:40:30.327Z,7.40
2019-04-29T18:43:00.591Z,7.40
2019-04-29T18:45:34.198Z,7.40
2019-04-29T18:48:00.930Z,7.40
2019-04-29T18:50:34.259Z,7.40
2019-04-29T18:53:00.974Z,7.40
2019-04-29T18:55:30.684Z,7.40
2019-04-29T18:57:59.883Z,7.50
2019-04-29T19:00:28.973Z,7.40
2019-04-29T19:03:00.976Z,7.50
2019-04-29T19:05:33.978Z,7.50
2019-04-29T19:08:12.264Z,7.40
2019-04-29T19:10:35.432Z,7.50
2019-04-29T19:13:12.401Z,7.50
2019-04-29T19:15:40.063Z,7.50
2019-04-29T19:18:07.974Z,7.40
2019-04-29T19:20:37.218Z,7.50
2019-04-29T19:23:10.106Z,7.50
2019-04-29T19:25:41.470Z,7.50
2019-04-29T19:28:14.358Z,7.50
2019-04-29T19:30:40.066Z,7.50
2019-04-29T19:33:09.293Z,7.50
2019-04-29T19:35:38.828Z,7.50
2019-04-29T19:38:12.452Z,7.50
2019-04-29T19:40:42.477Z,7.40
2019-04-29T19:43:10.420Z,7.40
2019-04-29T19:45:40.261Z,7.50
2019-04-29T19:48:09.768Z,7.50
2019-04-29T19:50:39.392Z,7.50
2019-04-29T19:53:08.474Z,7.50
2019-04-29T19:55:41.830Z,7.50
2019-04-29T19:58:12.200Z,7.50
2019-04-29T20:00:39.729Z,7.50
2019-04-29T20:03:20.461Z,7.50
2019-04-29T20:05:46.818Z,7.50
2019-04-29T20:08:31.402Z,7.50
2019-04-29T20:10:51.234Z,7.50
2019-04-29T20:13:20.965Z,7.50
2019-04-29T20:16:09.873Z,7.50
2019-04-29T20:18:40.714Z,7.50
2019-04-29T20:21:20.757Z,7.60
2019-04-29T20:23:42.591Z,7.60
2019-04-29T20:26:15.424Z,7.60
2019-04-29T20:28:42.812Z,7.60
2019-04-29T20:31:19.107Z,7.60
2019-04-29T20:33:46.844Z,7.60
2019-04-29T20:36:13.983Z,7.60
2019-04-29T20:38:45.302Z,7.60
2019-04-29T20:41:20.976Z,7.60
2019-04-29T20:43:46.188Z,7.60
2019-04-29T20:46:15.991Z,7.70
2019-04-29T20:48:45.951Z,7.70
2019-04-29T20:51:16.702Z,7.70
2019-04-29T20:53:47.536Z,7.60
2019-04-29T20:56:23.653Z,7.60
2019-04-29T20:58:47.418Z,7.70
2019-04-29T21:01:21.316Z,7.70
2019-04-29T21:03:53.842Z,7.70
2019-04-29T21:06:21.298Z,7.70
2019-04-29T21:08:51.036Z,7.70
2019-04-29T21:11:25.782Z,7.70
2019-04-29T21:13:59.445Z,7.70
2019-04-29T21:16:30.950Z,7.70
2019-04-29T21:19:01.542Z,7.70
2019-04-29T21:21:30.622Z,7.80
2019-04-29T21:23:59.519Z,7.70
2019-04-29T21:26:28.412Z,7.70
2019-04-29T21:28:57.597Z,7.80
2019-04-29T21:31:29.470Z,7.70
2019-04-29T21:33:59.033Z,7.70
2019-04-29T21:36:45.361Z,7.80
2019-04-29T21:39:28.501Z,7.80
2019-04-29T21:41:59.215Z,7.80
2019-04-29T21:44:29.117Z,7.80
2019-04-29T21:46:59.734Z,7.80
2019-04-29T21:49:28.849Z,7.80
2019-04-29T21:51:57.882Z,7.80
2019-04-29T21:54:26.732Z,7.80
2019-04-29T21:56:55.658Z,7.80
2019-04-29T21:59:25.846Z,7.80
2019-04-29T22:01:56.181Z,7.80
2019-04-29T22:04:32.770Z,7.90
2019-04-29T22:06:59.910Z,7.90
2019-04-29T22:09:36.106Z,7.90
2019-04-29T22:12:01.299Z,7.90
2019-04-29T22:14:32.256Z,7.90
2019-04-29T22:17:01.548Z,7.90
2019-04-29T22:19:30.366Z,7.90
2019-04-29T22:22:01.503Z,7.90
2019-04-29T22:24:29.806Z,7.90
2019-04-29T22:27:04.108Z,7.90
2019-04-29T22:29:32.164Z,7.90
2019-04-29T22:31:59.560Z,7.90
2019-04-29T22:34:28.495Z,8.00
2019-04-29T22:37:00.181Z,7.90
2019-04-29T22:39:30.161Z,7.90
2019-04-29T22:42:07.244Z,7.90
2019-04-29T22:44:36.169Z,8.00
2019-04-29T22:47:06.126Z,7.90
2019-04-29T22:49:35.408Z,7.90
2019-04-29T22:52:04.247Z,8.00
2019-04-29T22:54:33.151Z,8.00
2019-04-29T22:57:02.247Z,8.00
2019-04-29T22:59:31.014Z,8.00
2019-04-29T23:01:59.896Z,8.00
2019-04-29T23:04:28.805Z,8.00
2019-04-29T23:06:57.535Z,8.00
2019-04-29T23:09:26.502Z,8.00
2019-04-29T23:11:55.693Z,8.00
2019-04-29T23:14:25.263Z,8.00
2019-04-29T23:16:55.570Z,8.00
2019-04-29T23:19:25.940Z,8.00
2019-04-29T23:22:10.629Z,8.00
2019-04-29T23:24:51.442Z,8.00
2019-04-29T23:27:19.663Z,8.00
2019-04-29T23:29:47.975Z,8.00
2019-04-29T23:32:16.793Z,8.00
2019-04-29T23:34:45.806Z,8.00
2019-04-29T23:37:14.836Z,8.00
2019-04-29T23:39:45.590Z,8.00
2019-04-29T23:42:16.217Z,8.10
2019-04-29T23:44:44.882Z,8.10
2019-04-29T23:47:15.836Z,8.00
2019-04-29T23:49:44.939Z,8.10
2019-04-29T23:52:15.972Z,8.10
2019-04-29T23:54:48.430Z,8.10
2019-04-29T23:57:23.564Z,8.10
